createdAt,value
2019-03-28T00:01:00.000Z,100203
2019-03-28T00:06:00.000Z,100215
2019-03-28T00:11:00.000Z,100202
2019-03-28T00:16:00.000Z,100205
2019-03-28T00:21:00.000Z,100217
2019-03-28T00:26:00.000Z,100203
2019-03-28T00:31:00.000Z,100211
2019-03-28T00:36:00.000Z,100214
2019-03-28T00:41:00.000Z,100211
2019-03-28T00:46:00.000Z,100209
2019-03-28T00:51:00.000Z,100204
2019-03-28T00:56:00.000Z,100197
2019-03-28T01:01:00.000Z,100197
2019-03-28T01:06:00.000Z,100204
2019-03-28T01:11:00.000Z,100209
2019-03-28T01:16:00.000Z,100198
2019-03-28T01:21:00.000Z,100203
2019-03-28T01:26:00.000Z,100194
2019-03-28T01:31:00.000Z,100186
2019-03-28T01:36:00.000Z,100186
2019-03-28T01:42:00.000Z,100199
2019-03-28T01:47:00.000Z,100194
2019-03-28T01:52:00.000Z,100194
2019-03-28T01:57:00.000Z,100205
2019-03-28T02:02:00.000Z,100187
2019-03-28T02:07:00.000Z,100194
2019-03-28T02:12:00.000Z,100189
2019-03-28T02:17:00.000Z,100192
2019-03-28T02:22:00.000Z,100196
2019-03-28T02:27:00.000Z,100193
2019-03-28T02:32:00.000Z,100192
2019-03-28T02:37:00.000Z,100196
2019-03-28T02:42:00.000Z,100185
2019-03-28T02:47:00.000Z,100192
2019-03-28T02:52:00.000Z,100188
2019-03-28T02:57:00.000Z,100197
2019-03-28T03:02:00.000Z,100203
2019-03-28T03:07:00.000Z,100190
2019-03-28T03:12:00.000Z,100186
2019-03-28T03:17:00.000Z,100192
2019-03-28T03:22:00.000Z,100197
2019-03-28T03:27:00.000Z,100186
2019-03-28T03:32:00.000Z,100183
2019-03-28T03:38:00.000Z,100193
2019-03-28T03:43:00.000Z,100194
2019-03-28T03:48:00.000Z,100192
2019-03-28T03:53:00.000Z,100190
2019-03-28T03:58:00.000Z,100187
2019-03-28T04:03:00.000Z,100185
2019-03-28T04:08:00.000Z,100183
2019-03-28T04:13:00.000Z,100180
2019-03-28T04:18:00.000Z,100178
2019-03-28T04:23:00.000Z,100167
2019-03-28T04:28:00.000Z,100183
2019-03-28T04:33:00.000Z,100180
2019-03-28T04:38:00.000Z,100182
2019-03-28T04:43:00.000Z,100183
2019-03-28T04:48:00.000Z,100193
2019-03-28T04:53:00.000Z,100186
2019-03-28T04:58:00.000Z,100200
2019-03-28T05:03:00.000Z,100193
2019-03-28T05:08:00.000Z,100192
2019-03-28T05:13:00.000Z,100205
2019-03-28T05:18:00.000Z,100208
2019-03-28T05:23:00.000Z,100200
2019-03-28T05:28:00.000Z,100208
2019-03-28T05:33:00.000Z,100204
2019-03-28T05:39:00.000Z,100220
2019-03-28T05:44:00.000Z,100222
2019-03-28T05:49:00.000Z,100219
2019-03-28T05:54:00.000Z,100218
2019-03-28T05:59:00.000Z,100215
2019-03-28T06:04:00.000Z,100222
2019-03-28T06:09:00.000Z,100224
2019-03-28T06:14:00.000Z,100238
2019-03-28T06:19:00.000Z,100236
2019-03-28T06:24:00.000Z,100236
2019-03-28T06:29:00.000Z,100246
2019-03-28T06:34:00.000Z,100257
2019-03-28T06:39:00.000Z,100249
2019-03-28T06:44:00.000Z,100233
2019-03-28T06:49:00.000Z,100241
2019-03-28T06:54:00.000Z,100244
2019-03-28T06:59:00.000Z,100238
2019-03-28T07:04:00.000Z,100234
2019-03-28T07:09:00.000Z,100244
2019-03-28T07:14:00.000Z,100238
2019-03-28T07:19:00.000Z,100244
2019-03-28T07:24:00.000Z,100233
2019-03-28T07:29:00.000Z,100244
2019-03-28T07:34:00.000Z,100232
2019-03-28T07:39:00.000Z,100216
2019-03-28T07:44:00.000Z,100218
2019-03-28T07:49:00.000Z,100218
2019-03-28T07:54:00.000Z,100233
2019-03-28T07:59:00.000Z,100238
2019-03-28T08:05:00.000Z,100246
2019-03-28T08:10:00.000Z,100242
2019-03-28T08:15:00.000Z,100238
2019-03-28T08:20:00.000Z,100231
2019-03-28T08:25:00.000Z,100237
2019-03-28T08:30:00.000Z,100235
2019-03-28T08:35:00.000Z,100232
2019-03-28T08:40:00.000Z,100243
2019-03-28T08:45:00.000Z,100244
2019-03-28T08:50:00.000Z,100244
2019-03-28T08:55:00.000Z,100244
2019-03-28T09:00:00.000Z,100252
2019-03-28T09:07:00.000Z,100245
2019-03-28T09:12:00.000Z,100227
2019-03-28T09:19:00.000Z,100236
2019-03-28T09:24:00.000Z,100238
2019-03-28T09:29:00.000Z,100209
2019-03-28T09:34:00.000Z,100210
2019-03-28T09:39:00.000Z,100210
2019-03-28T09:44:00.000Z,100212
2019-03-28T09:49:00.000Z,100201
2019-03-28T09:54:00.000Z,100204
2019-03-28T09:59:00.000Z,100206
2019-03-28T10:04:00.000Z,100208
2019-03-28T10:09:00.000Z,100189
2019-03-28T10:14:00.000Z,100190
2019-03-28T10:19:00.000Z,100175
2019-03-28T10:25:00.000Z,100178
2019-03-28T10:30:00.000Z,100175
2019-03-28T10:35:00.000Z,100171
2019-03-28T10:40:00.000Z,100163
2019-03-28T10:45:00.000Z,100182
2019-03-28T10:50:00.000Z,100165
2019-03-28T10:55:00.000Z,100160
2019-03-28T11:00:00.000Z,100167
2019-03-28T11:05:00.000Z,100172
2019-03-28T11:10:00.000Z,100175
2019-03-28T11:15:00.000Z,100170
2019-03-28T11:20:00.000Z,100173
2019-03-28T11:25:00.000Z,100163
2019-03-28T11:30:00.000Z,100166
2019-03-28T11:35:00.000Z,100166
2019-03-28T11:40:00.000Z,100160
2019-03-28T11:45:00.000Z,100157
2019-03-28T11:50:00.000Z,100152
2019-03-28T11:55:00.000Z,100157
2019-03-28T12:00:00.000Z,100152
2019-03-28T12:05:00.000Z,100143
2019-03-28T12:10:00.000Z,100141
2019-03-28T12:15:00.000Z,100137
2019-03-28T12:20:00.000Z,100143
2019-03-28T12:25:00.000Z,100139
2019-03-28T12:30:00.000Z,100127
2019-03-28T12:35:00.000Z,100120
2019-03-28T12:40:00.000Z,100117
2019-03-28T12:45:00.000Z,100102
2019-03-28T12:50:00.000Z,100108
2019-03-28T12:55:00.000Z,100102
2019-03-28T13:00:00.000Z,100099
2019-03-28T13:05:00.000Z,100100
2019-03-28T13:10:00.000Z,100094
2019-03-28T13:15:00.000Z,100077
2019-03-28T13:20:00.000Z,100090
2019-03-28T13:25:00.000Z,100089
2019-03-28T13:30:00.000Z,100095
2019-03-28T13:35:00.000Z,100089
2019-03-28T13:40:00.000Z,100073
2019-03-28T13:45:00.000Z,100074
2019-03-28T13:50:00.000Z,100068
2019-03-28T13:55:00.000Z,100084
2019-03-28T14:00:00.000Z,100072
2019-03-28T14:05:00.000Z,100073
2019-03-28T14:10:00.000Z,100083
2019-03-28T14:15:00.000Z,100070
2019-03-28T14:20:00.000Z,100072
2019-03-28T14:25:00.000Z,100078
2019-03-28T14:30:00.000Z,100082
2019-03-28T14:35:00.000Z,100071
2019-03-28T14:40:00.000Z,100072
2019-03-28T14:45:00.000Z,100074
2019-03-28T14:50:00.000Z,100075
2019-03-28T14:55:00.000Z,100077
2019-03-28T15:00:00.000Z,100084
2019-03-28T15:05:00.000Z,100075
2019-03-28T15:10:00.000Z,100085
2019-03-28T15:15:00.000Z,100073
2019-03-28T15:20:00.000Z,100090
2019-03-28T15:25:00.000Z,100088
2019-03-28T15:30:00.000Z,100085
2019-03-28T15:35:00.000Z,100096
2019-03-28T15:40:00.000Z,100094
2019-03-28T15:46:00.000Z,100100
2019-03-28T15:51:00.000Z,100102
2019-03-28T15:56:00.000Z,100110
2019-03-28T16:01:00.000Z,100111
2019-03-28T16:06:00.000Z,100107
2019-03-28T16:11:00.000Z,100117
2019-03-28T16:16:00.000Z,100116
2019-03-28T16:21:00.000Z,100111
2019-03-28T16:26:00.000Z,100109
2019-03-28T16:31:00.000Z,100109
2019-03-28T16:36:00.000Z,100124
2019-03-28T16:41:00.000Z,100122
2019-03-28T16:46:00.000Z,100128
2019-03-28T16:51:00.000Z,100126
2019-03-28T16:56:00.000Z,100134
2019-03-28T17:01:00.000Z,100127
2019-03-28T17:06:00.000Z,100139
2019-03-28T17:11:00.000Z,100139
2019-03-28T17:16:00.000Z,100139
2019-03-28T17:21:00.000Z,100138
2019-03-28T17:26:00.000Z,100135
2019-03-28T17:31:00.000Z,100140
2019-03-28T17:36:00.000Z,100147
2019-03-28T17:41:00.000Z,100148
2019-03-28T17:46:00.000Z,100149
2019-03-28T17:51:00.000Z,100152
2019-03-28T17:56:00.000Z,100163
2019-03-28T18:01:00.000Z,100169
2019-03-28T18:06:00.000Z,100168
2019-03-28T18:11:00.000Z,100181
2019-03-28T18:16:00.000Z,100190
2019-03-28T18:21:00.000Z,100207
2019-03-28T18:26:00.000Z,100221
2019-03-28T18:31:00.000Z,100211
2019-03-28T18:36:00.000Z,100227
2019-03-28T18:41:00.000Z,100230
2019-03-28T18:46:00.000Z,100238
2019-03-28T18:51:00.000Z,100242
2019-03-28T18:56:00.000Z,100233
2019-03-28T19:01:00.000Z,100241
2019-03-28T19:06:00.000Z,100237
2019-03-28T19:11:00.000Z,100233
2019-03-28T19:16:00.000Z,100239
2019-03-28T19:21:00.000Z,100224
2019-03-28T19:26:00.000Z,100238
2019-03-28T19:31:00.000Z,100231
2019-03-28T19:36:00.000Z,100234
2019-03-28T19:41:00.000Z,100239
2019-03-28T19:46:00.000Z,100249
2019-03-28T19:51:00.000Z,100262
2019-03-28T19:56:00.000Z,100263
2019-03-28T20:01:00.000Z,100267
2019-03-28T20:06:00.000Z,100267
2019-03-28T20:11:00.000Z,100278
2019-03-28T20:16:00.000Z,100280
2019-03-28T20:21:00.000Z,100284
2019-03-28T20:26:00.000Z,100283
2019-03-28T20:31:00.000Z,100291
2019-03-28T20:36:00.000Z,100284
2019-03-28T20:41:00.000Z,100289
2019-03-28T20:46:00.000Z,100280
2019-03-28T20:51:00.000Z,100295
2019-03-28T20:56:00.000Z,100292
2019-03-28T21:02:00.000Z,100296
2019-03-28T21:07:00.000Z,100300
2019-03-28T21:12:00.000Z,100318
2019-03-28T21:17:00.000Z,100313
2019-03-28T21:22:00.000Z,100304
2019-03-28T21:27:00.000Z,100309
2019-03-28T21:32:00.000Z,100306
2019-03-28T21:37:00.000Z,100310
2019-03-28T21:42:00.000Z,100309
2019-03-28T21:47:00.000Z,100298
2019-03-28T21:52:00.000Z,100308
2019-03-28T21:57:00.000Z,100313
2019-03-28T22:02:00.000Z,100319
2019-03-28T22:07:00.000Z,100323
2019-03-28T22:12:00.000Z,100322
2019-03-28T22:17:00.000Z,100329
2019-03-28T22:22:00.000Z,100331
2019-03-28T22:27:00.000Z,100338
2019-03-28T22:32:00.000Z,100336
2019-03-28T22:37:00.000Z,100338
2019-03-28T22:42:00.000Z,100329
2019-03-28T22:47:00.000Z,100324
2019-03-28T22:52:00.000Z,100325
2019-03-28T22:57:00.000Z,100324
2019-03-28T23:02:00.000Z,100333
2019-03-28T23:07:00.000Z,100315
2019-03-28T23:12:00.000Z,100325
2019-03-28T23:17:00.000Z,100321
2019-03-28T23:22:00.000Z,100322
2019-03-28T23:27:00.000Z,100317
2019-03-28T23:32:00.000Z,100326
2019-03-28T23:37:00.000Z,100325
2019-03-28T23:42:00.000Z,100331
2019-03-28T23:47:00.000Z,100333
2019-03-28T23:52:00.000Z,100335
2019-03-28T23:57:00.000Z,100339
